createdAt,value
2022-09-28T00:00:11.569Z,9.00
2022-09-28T00:01:27.993Z,9.00
2022-09-28T00:02:44.430Z,9.00
2022-09-28T00:04:00.808Z,9.00
2022-09-28T00:05:17.185Z,9.00
2022-09-28T00:06:33.563Z,9.00
2022-09-28T00:07:49.953Z,9.00
2022-09-28T00:09:06.311Z,9.00
2022-09-28T00:10:22.972Z,9.00
2022-09-28T00:11:39.384Z,9.00
2022-09-28T00:12:55.742Z,9.00
2022-09-28T00:14:12.104Z,9.00
2022-09-28T00:15:28.503Z,9.00
2022-09-28T00:16:45.172Z,9.00
2022-09-28T00:18:01.540Z,9.00
2022-09-28T00:19:18.038Z,9.00
2022-09-28T00:20:34.467Z,9.00
2022-09-28T00:21:50.834Z,9.00
2022-09-28T00:23:07.478Z,9.00
2022-09-28T00:24:27.550Z,9.00
2022-09-28T00:25:44.208Z,9.00
2022-09-28T00:27:00.617Z,9.00
2022-09-28T00:28:16.950Z,9.00
2022-09-28T00:29:33.609Z,1.00
2022-09-28T00:30:49.999Z,1.00
2022-09-28T00:32:06.367Z,9.00
2022-09-28T00:33:22.717Z,9.00
2022-09-28T00:34:39.096Z,9.00
2022-09-28T00:35:55.738Z,1.00
2022-09-28T00:37:12.126Z,9.00
2022-09-28T00:38:28.499Z,9.00
2022-09-28T00:39:44.879Z,9.00
2022-09-28T00:41:01.336Z,9.00
2022-09-28T00:42:19.137Z,9.00
2022-09-28T00:43:35.488Z,9.00
2022-09-28T00:44:51.870Z,9.00
2022-09-28T00:46:08.329Z,9.00
2022-09-28T00:47:24.970Z,1.00
2022-09-28T00:48:41.319Z,9.00
2022-09-28T00:49:57.702Z,9.00
2022-09-28T00:51:14.132Z,9.00
2022-09-28T00:52:30.508Z,9.00
2022-09-28T00:53:47.146Z,9.00
2022-09-28T00:55:03.544Z,1.00
2022-09-28T00:56:19.920Z,9.00
2022-09-28T00:57:36.273Z,9.00
2022-09-28T00:58:54.091Z,9.00
2022-09-28T01:00:10.774Z,9.00
2022-09-28T01:01:27.201Z,9.00
2022-09-28T01:02:43.559Z,9.00
2022-09-28T01:03:59.923Z,9.00
2022-09-28T01:05:16.315Z,9.00
2022-09-28T01:06:32.952Z,9.00
2022-09-28T01:07:49.343Z,9.00
2022-09-28T01:09:05.683Z,9.00
2022-09-28T01:10:22.144Z,9.00
2022-09-28T01:11:38.497Z,9.00
2022-09-28T01:12:55.134Z,9.00
2022-09-28T01:14:12.447Z,9.00
2022-09-28T01:15:28.879Z,9.00
2022-09-28T01:16:45.293Z,9.00
2022-09-28T01:18:01.678Z,9.00
2022-09-28T01:19:18.416Z,9.00
2022-09-28T01:20:34.938Z,9.00
2022-09-28T01:21:51.288Z,9.00
2022-09-28T01:23:07.680Z,9.00
2022-09-28T01:24:24.040Z,1.00
2022-09-28T01:25:40.722Z,1.00
2022-09-28T01:26:57.078Z,9.00
2022-09-28T01:28:14.391Z,9.00
2022-09-28T01:29:30.760Z,9.00
2022-09-28T01:30:47.160Z,9.00
2022-09-28T01:32:03.860Z,9.00
2022-09-28T01:33:20.230Z,9.00
2022-09-28T01:34:36.591Z,1.00
2022-09-28T01:35:52.996Z,9.00
2022-09-28T01:37:09.353Z,9.00
2022-09-28T01:38:26.011Z,9.00
2022-09-28T01:39:42.376Z,9.00
2022-09-28T01:40:58.847Z,1.00
2022-09-28T01:42:15.202Z,9.00
2022-09-28T01:43:32.554Z,9.00
2022-09-28T01:44:49.192Z,9.00
2022-09-28T01:46:07.113Z,9.00
2022-09-28T01:47:23.513Z,9.00
2022-09-28T01:48:39.951Z,9.00
2022-09-28T01:49:56.328Z,9.00
2022-09-28T01:51:12.976Z,9.00
2022-09-28T01:52:29.371Z,9.00
2022-09-28T01:53:45.746Z,1.00
2022-09-28T01:55:03.565Z,1.00
2022-09-28T01:56:19.937Z,9.00
2022-09-28T01:57:36.576Z,9.00
2022-09-28T01:58:54.507Z,9.00
2022-09-28T02:00:10.894Z,9.00
2022-09-28T02:01:27.267Z,1.00
2022-09-28T02:02:45.111Z,9.00
2022-09-28T02:04:01.797Z,9.00
2022-09-28T02:05:18.160Z,1.00
2022-09-28T02:06:34.542Z,9.00
2022-09-28T02:07:50.930Z,9.00
2022-09-28T02:09:07.304Z,9.00
2022-09-28T02:10:24.910Z,9.00
2022-09-28T02:11:42.740Z,1.00
2022-09-28T02:13:00.561Z,9.00
2022-09-28T02:14:16.934Z,9.00
2022-09-28T02:15:33.312Z,9.00
2022-09-28T02:16:49.972Z,9.00
2022-09-28T02:18:07.786Z,1.00
2022-09-28T02:19:26.154Z,9.00
2022-09-28T02:20:43.963Z,9.00
2022-09-28T02:22:00.342Z,9.00
2022-09-28T02:23:16.972Z,9.00
2022-09-28T02:24:33.371Z,9.00
2022-09-28T02:25:49.740Z,9.00
2022-09-28T02:27:07.573Z,9.00
2022-09-28T02:28:23.958Z,9.00
2022-09-28T02:29:42.096Z,9.00
2022-09-28T02:30:58.456Z,9.00
2022-09-28T02:32:14.838Z,9.00
2022-09-28T02:33:31.214Z,9.00
2022-09-28T02:34:47.606Z,9.00
2022-09-28T02:36:04.235Z,9.00
2022-09-28T02:37:20.606Z,9.00
2022-09-28T02:38:36.978Z,9.00
2022-09-28T02:39:53.387Z,1.00
2022-09-28T02:41:09.735Z,9.00
2022-09-28T02:42:26.398Z,9.00
2022-09-28T02:43:42.757Z,9.00
2022-09-28T02:44:59.157Z,1.00
2022-09-28T02:46:15.605Z,1.00
2022-09-28T02:47:31.957Z,9.00
2022-09-28T02:49:00.120Z,9.00
2022-09-28T02:50:09.870Z,9.00
2022-09-28T02:51:27.688Z,9.00
2022-09-28T02:52:44.065Z,9.00
2022-09-28T02:54:00.419Z,9.00
2022-09-28T02:55:17.109Z,9.00
2022-09-28T02:56:33.471Z,1.00
2022-09-28T02:57:49.850Z,9.00
2022-09-28T02:59:07.651Z,9.00
2022-09-28T03:00:24.322Z,1.00
2022-09-28T03:01:40.981Z,9.00
2022-09-28T03:02:57.340Z,1.00
2022-09-28T03:04:13.711Z,9.00
2022-09-28T03:05:30.101Z,9.00
2022-09-28T03:06:46.461Z,9.00
2022-09-28T03:08:03.130Z,9.00
2022-09-28T03:09:19.476Z,9.00
2022-09-28T03:10:35.880Z,9.00
2022-09-28T03:11:53.683Z,9.00
2022-09-28T03:13:10.054Z,9.00
2022-09-28T03:14:26.690Z,9.00
2022-09-28T03:15:47.804Z,9.00
2022-09-28T03:17:04.314Z,9.00
2022-09-28T03:18:20.692Z,9.00
2022-09-28T03:19:37.164Z,1.00
2022-09-28T03:20:53.794Z,9.00
2022-09-28T03:22:10.158Z,1.00
2022-09-28T03:23:26.536Z,9.00
2022-09-28T03:24:44.449Z,9.00
2022-09-28T03:26:02.276Z,9.00
2022-09-28T03:27:19.789Z,9.00
2022-09-28T03:28:36.174Z,1.00
2022-09-28T03:29:54.049Z,1.00
2022-09-28T03:31:11.930Z,9.00
2022-09-28T03:32:29.760Z,1.00
2022-09-28T03:33:46.400Z,9.00
2022-09-28T03:35:02.800Z,9.00
2022-09-28T03:36:19.172Z,1.00
2022-09-28T03:37:35.570Z,1.00
2022-09-28T03:38:52.971Z,9.00
2022-09-28T03:40:09.731Z,9.00
2022-09-28T03:41:26.119Z,1.00
2022-09-28T03:42:42.481Z,1.00
2022-09-28T03:43:58.870Z,9.00
2022-09-28T03:45:15.261Z,9.00
2022-09-28T03:46:31.943Z,9.00
2022-09-28T03:47:49.722Z,1.00
2022-09-28T03:49:07.553Z,9.00
2022-09-28T03:50:23.968Z,1.00
2022-09-28T03:51:40.372Z,9.00
2022-09-28T03:52:57.002Z,9.00
2022-09-28T03:54:13.373Z,9.00
2022-09-28T03:55:29.904Z,9.00
2022-09-28T03:56:46.283Z,9.00
2022-09-28T03:58:02.652Z,9.00
2022-09-28T03:59:19.301Z,9.00
2022-09-28T04:00:35.756Z,9.00
2022-09-28T04:01:53.653Z,1.00
2022-09-28T04:03:11.426Z,9.00
2022-09-28T04:04:27.796Z,9.00
2022-09-28T04:05:46.019Z,9.00
2022-09-28T04:07:02.378Z,13.00
2022-09-28T04:08:18.724Z,13.00
2022-09-28T04:09:36.578Z,13.00
2022-09-28T04:10:54.438Z,15.00
2022-09-28T04:12:12.556Z,15.00
2022-09-28T04:13:28.908Z,13.00
2022-09-28T04:14:46.748Z,13.00
2022-09-28T04:16:04.692Z,1.00
2022-09-28T04:17:22.488Z,15.00
2022-09-28T04:18:40.579Z,15.00
2022-09-28T04:19:56.991Z,15.00
2022-09-28T04:21:14.817Z,15.00
2022-09-28T04:22:31.198Z,9.00
2022-09-28T04:23:49.009Z,9.00
2022-09-28T04:25:07.275Z,9.00
2022-09-28T04:26:25.089Z,13.00
2022-09-28T04:27:42.919Z,15.00
2022-09-28T04:29:05.517Z,13.00
2022-09-28T04:30:23.490Z,13.00
2022-09-28T04:31:41.605Z,15.00
2022-09-28T04:33:01.881Z,13.00
2022-09-28T04:34:19.982Z,5.00
2022-09-28T04:35:37.802Z,13.00
2022-09-28T04:36:55.722Z,5.00
2022-09-28T04:38:13.839Z,13.00
2022-09-28T04:39:31.652Z,9.00
2022-09-28T04:40:50.055Z,9.00
2022-09-28T04:42:07.857Z,9.00
2022-09-28T04:43:25.696Z,9.00
2022-09-28T04:44:43.543Z,9.00
2022-09-28T04:46:02.993Z,5.00
2022-09-28T04:47:22.816Z,13.00
2022-09-28T04:48:41.215Z,13.00
2022-09-28T04:49:59.594Z,13.00
2022-09-28T04:51:17.436Z,13.00
2022-09-28T04:52:35.292Z,5.00
2022-09-28T04:53:53.145Z,13.00
2022-09-28T04:55:11.005Z,13.00
2022-09-28T04:56:27.696Z,13.00
2022-09-28T04:57:46.046Z,13.00
2022-09-28T04:59:03.367Z,13.00
2022-09-28T05:00:21.226Z,13.00
2022-09-28T05:01:39.282Z,13.00
2022-09-28T05:02:57.406Z,20.00
2022-09-28T05:04:13.844Z,20.00
2022-09-28T05:05:31.795Z,20.00
2022-09-28T05:06:49.119Z,18.00
2022-09-28T05:08:09.392Z,18.00
2022-09-28T05:09:27.808Z,18.00
2022-09-28T05:10:46.199Z,18.00
2022-09-28T05:12:04.058Z,31.00
2022-09-28T05:13:21.928Z,31.00
2022-09-28T05:14:40.060Z,31.00
2022-09-28T05:16:01.744Z,18.00
2022-09-28T05:17:20.661Z,18.00
2022-09-28T05:18:37.089Z,18.00
2022-09-28T05:19:54.941Z,31.00
2022-09-28T05:21:12.576Z,31.00
2022-09-28T05:22:30.811Z,31.00
2022-09-28T05:23:48.204Z,19.00
2022-09-28T05:25:06.533Z,27.00
2022-09-28T05:26:25.394Z,41.00
2022-09-28T05:27:43.453Z,47.00
2022-09-28T05:29:00.862Z,45.00
2022-09-28T05:30:19.184Z,29.00
2022-09-28T05:31:37.687Z,63.00
2022-09-28T05:32:55.689Z,55.00
2022-09-28T05:34:14.505Z,60.00
2022-09-28T05:35:33.904Z,56.00
2022-09-28T05:36:51.785Z,47.00
2022-09-28T05:38:09.109Z,47.00
2022-09-28T05:39:28.776Z,48.00
2022-09-28T05:40:48.258Z,50.00
2022-09-28T05:42:06.556Z,71.00
2022-09-28T05:43:25.688Z,93.00
2022-09-28T05:44:43.535Z,77.00
2022-09-28T05:46:02.430Z,91.00
2022-09-28T05:47:20.267Z,101.00
2022-09-28T05:48:38.667Z,135.00
2022-09-28T05:49:57.287Z,118.00
2022-09-28T05:51:15.929Z,135.00
2022-09-28T05:52:34.288Z,144.00
2022-09-28T05:53:52.135Z,158.00
2022-09-28T05:55:09.999Z,153.00
2022-09-28T05:56:29.459Z,157.00
2022-09-28T05:57:47.350Z,154.00
2022-09-28T05:59:06.275Z,170.00
2022-09-28T06:00:25.261Z,191.00
2022-09-28T06:01:43.188Z,206.00
2022-09-28T06:03:05.386Z,251.00
2022-09-28T06:04:25.750Z,264.00
2022-09-28T06:05:43.177Z,278.00
2022-09-28T06:07:00.797Z,288.00
2022-09-28T06:08:18.653Z,282.00
2022-09-28T06:09:36.510Z,238.00
2022-09-28T06:10:54.888Z,206.00
2022-09-28T06:12:13.230Z,177.00
2022-09-28T06:13:31.584Z,167.00
2022-09-28T06:14:49.103Z,163.00
2022-09-28T06:16:06.973Z,152.00
2022-09-28T06:17:25.854Z,162.00
2022-09-28T06:18:43.204Z,170.00
2022-09-28T06:20:02.854Z,174.00
2022-09-28T06:21:21.829Z,177.00
2022-09-28T06:22:40.738Z,161.00
2022-09-28T06:23:59.407Z,190.00
2022-09-28T06:25:17.368Z,200.00
2022-09-28T06:26:35.920Z,200.00
2022-09-28T06:27:53.237Z,209.00
2022-09-28T06:29:13.721Z,248.00
2022-09-28T06:30:34.438Z,251.00
2022-09-28T06:31:51.878Z,273.00
2022-09-28T06:33:10.236Z,303.00
2022-09-28T06:34:28.588Z,332.00
2022-09-28T06:35:47.067Z,334.00
2022-09-28T06:37:05.523Z,378.00
2022-09-28T06:38:23.945Z,410.00
2022-09-28T06:39:41.732Z,435.00
2022-09-28T06:41:00.251Z,494.00
2022-09-28T06:42:17.926Z,515.00
2022-09-28T06:43:36.311Z,431.00
2022-09-28T06:44:55.201Z,411.00
2022-09-28T06:46:13.765Z,420.00
2022-09-28T06:47:31.751Z,407.00
2022-09-28T06:48:50.629Z,470.00
2022-09-28T06:51:59.040Z,761.00
2022-09-28T06:53:17.432Z,889.00
2022-09-28T06:54:33.971Z,1014.00
2022-09-28T06:55:53.401Z,1088.00
2022-09-28T06:57:12.044Z,1132.00
2022-09-28T06:58:30.431Z,1154.00
2022-09-28T06:59:49.928Z,1163.00
2022-09-28T07:01:08.320Z,1094.00
2022-09-28T07:02:26.760Z,1044.00
2022-09-28T07:03:46.692Z,994.00
2022-09-28T07:05:05.613Z,1003.00
2022-09-28T07:06:24.477Z,1042.00
2022-09-28T07:07:45.282Z,985.00
2022-09-28T07:09:21.223Z,913.00
2022-09-28T07:10:27.497Z,920.00
2022-09-28T07:11:45.366Z,899.00
2022-09-28T07:13:05.194Z,850.00
2022-09-28T07:14:43.995Z,883.00
2022-09-28T07:15:51.467Z,907.00
2022-09-28T07:17:14.807Z,951.00
2022-09-28T07:18:34.028Z,1056.00
2022-09-28T07:19:53.397Z,1179.00
2022-09-28T07:21:24.816Z,1196.00
2022-09-28T07:22:43.096Z,1260.00
2022-09-28T07:23:59.366Z,1281.00
2022-09-28T07:25:17.253Z,1266.00
2022-09-28T07:26:36.229Z,1259.00
2022-09-28T07:27:54.259Z,1285.00
2022-09-28T07:29:13.496Z,1421.00
2022-09-28T07:30:33.816Z,1545.00
2022-09-28T07:31:52.217Z,1655.00
2022-09-28T07:33:10.135Z,1629.00
2022-09-28T07:34:28.487Z,1477.00
2022-09-28T07:35:46.733Z,1333.00
2022-09-28T07:37:05.263Z,1235.00
2022-09-28T07:38:24.402Z,1135.00
2022-09-28T07:41:34.376Z,953.00
2022-09-28T07:42:52.576Z,945.00
2022-09-28T07:44:11.430Z,966.00
2022-09-28T07:45:28.957Z,1033.00
2022-09-28T07:46:46.970Z,1120.00
2022-09-28T07:48:05.449Z,1148.00
2022-09-28T07:49:23.803Z,1198.00
2022-09-28T07:50:42.113Z,1259.00
2022-09-28T07:52:01.112Z,1277.00
2022-09-28T07:53:20.218Z,1275.00
2022-09-28T07:54:38.882Z,1259.00
2022-09-28T07:55:58.397Z,1321.00
2022-09-28T07:57:21.768Z,1334.00
2022-09-28T07:58:41.208Z,1403.00
2022-09-28T07:59:59.735Z,1452.00
2022-09-28T08:01:17.475Z,1466.00
2022-09-28T08:02:36.037Z,1538.00
2022-09-28T08:03:53.435Z,1473.00
2022-09-28T08:05:10.854Z,1394.00
2022-09-28T08:06:30.240Z,1397.00
2022-09-28T08:07:48.146Z,1452.00
2022-09-28T08:09:06.155Z,1364.00
2022-09-28T08:10:25.496Z,1204.00
2022-09-28T08:11:44.340Z,1145.00
2022-09-28T08:16:43.522Z,1297.00
2022-09-28T08:18:02.773Z,1194.00
2022-09-28T08:19:21.595Z,1156.00
2022-09-28T08:20:41.996Z,1194.00
2022-09-28T08:21:59.916Z,1267.00
2022-09-28T08:23:18.238Z,1435.00
2022-09-28T08:24:37.484Z,1610.00
2022-09-28T08:25:54.955Z,1777.00
2022-09-28T08:27:13.241Z,1896.00
2022-09-28T08:28:33.794Z,1883.00
2022-09-28T08:29:56.494Z,1797.00
2022-09-28T08:31:14.244Z,2551.00
2022-09-28T08:32:32.546Z,1740.00
2022-09-28T08:37:33.208Z,1357.00
2022-09-28T08:38:50.709Z,1530.00
2022-09-28T08:40:14.579Z,1919.00
2022-09-28T08:43:25.503Z,2484.00
2022-09-28T08:46:11.389Z,2082.00
2022-09-28T08:47:28.128Z,1870.00
2022-09-28T08:49:01.162Z,1979.00
2022-09-28T08:50:09.991Z,2132.00
2022-09-28T08:51:28.006Z,2025.00
2022-09-28T08:52:48.547Z,1683.00
2022-09-28T08:54:10.988Z,2269.00
2022-09-28T08:55:29.931Z,1169.00
2022-09-28T08:56:48.511Z,1278.00
2022-09-28T08:58:07.123Z,1463.00
2022-09-28T08:59:25.555Z,1707.00
2022-09-28T09:00:44.934Z,2472.00
2022-09-28T09:02:02.736Z,2651.00
2022-09-28T09:03:22.621Z,3300.00
2022-09-28T09:04:41.149Z,2985.00
2022-09-28T09:06:02.369Z,3781.00
2022-09-28T09:07:26.933Z,3679.00
2022-09-28T09:08:45.986Z,3026.00
2022-09-28T09:10:04.355Z,3252.00
2022-09-28T09:11:22.550Z,3971.00
2022-09-28T09:12:41.400Z,2449.00
2022-09-28T09:14:02.506Z,1953.00
2022-09-28T09:15:22.072Z,1941.00
2022-09-28T09:16:40.242Z,2015.00
2022-09-28T09:17:59.214Z,2091.00
2022-09-28T09:19:21.785Z,2154.00
2022-09-28T09:20:41.386Z,2123.00
2022-09-28T09:22:00.125Z,2003.00
2022-09-28T09:23:18.530Z,2012.00
2022-09-28T09:24:37.088Z,2162.00
2022-09-28T09:25:56.510Z,2316.00
2022-09-28T09:27:16.888Z,2314.00
2022-09-28T09:28:35.893Z,2182.00
2022-09-28T09:29:55.358Z,2080.00
2022-09-28T09:34:57.865Z,1711.00
2022-09-28T09:36:18.317Z,1477.00
2022-09-28T09:37:36.310Z,1222.00
2022-09-28T09:38:55.197Z,1131.00
2022-09-28T09:40:12.587Z,1050.00
2022-09-28T09:41:30.516Z,916.00
2022-09-28T09:42:49.341Z,823.00
2022-09-28T09:44:07.917Z,762.00
2022-09-28T09:45:25.934Z,775.00
2022-09-28T09:46:44.319Z,823.00
2022-09-28T09:48:01.978Z,789.00
2022-09-28T09:53:12.406Z,594.00
2022-09-28T09:54:31.873Z,674.00
2022-09-28T09:55:50.085Z,694.00
2022-09-28T09:57:08.500Z,688.00
2022-09-28T10:00:17.928Z,674.00
2022-09-28T10:03:28.162Z,505.00
2022-09-28T10:04:46.794Z,453.00
2022-09-28T10:06:08.402Z,433.00
2022-09-28T10:07:27.357Z,393.00
2022-09-28T10:08:52.830Z,469.00
2022-09-28T10:10:18.798Z,553.00
2022-09-28T10:11:39.794Z,558.00
2022-09-28T10:12:58.888Z,502.00
2022-09-28T10:14:17.889Z,493.00
2022-09-28T10:15:35.758Z,511.00
2022-09-28T10:16:55.889Z,578.00
2022-09-28T10:18:15.839Z,771.00
2022-09-28T10:19:37.646Z,730.00
2022-09-28T10:21:02.857Z,758.00
2022-09-28T10:22:27.362Z,772.00
2022-09-28T10:23:45.669Z,711.00
2022-09-28T10:25:05.133Z,680.00
2022-09-28T10:28:14.695Z,821.00
2022-09-28T10:31:24.321Z,802.00
2022-09-28T10:32:43.270Z,959.00
2022-09-28T10:34:02.908Z,1114.00
2022-09-28T10:35:22.462Z,1213.00
2022-09-28T10:36:48.869Z,1321.00
2022-09-28T10:40:01.539Z,1758.00
2022-09-28T10:41:23.465Z,1696.00
2022-09-28T10:42:47.653Z,1863.00
2022-09-28T10:44:09.537Z,1970.00
2022-09-28T10:45:30.411Z,2018.00
2022-09-28T10:46:50.888Z,1956.00
2022-09-28T10:48:11.288Z,1872.00
2022-09-28T10:49:31.233Z,1838.00
2022-09-28T10:52:41.146Z,1687.00
2022-09-28T10:54:03.071Z,1630.00
2022-09-28T10:55:21.591Z,1587.00
2022-09-28T10:56:40.022Z,1498.00
2022-09-28T10:57:57.954Z,1432.00
2022-09-28T10:59:17.355Z,1418.00
2022-09-28T11:00:47.966Z,1449.00
2022-09-28T11:02:10.386Z,1518.00
2022-09-28T11:03:31.670Z,1502.00
2022-09-28T11:04:52.659Z,1378.00
2022-09-28T11:06:16.542Z,1202.00
2022-09-28T11:07:40.533Z,1074.00
2022-09-28T11:09:03.766Z,1023.00
2022-09-28T11:10:26.336Z,1024.00
2022-09-28T11:11:46.226Z,1089.00
2022-09-28T11:13:05.788Z,1170.00
2022-09-28T11:14:32.210Z,1351.00
2022-09-28T11:15:54.335Z,1613.00
2022-09-28T11:17:19.979Z,1736.00
2022-09-28T11:18:38.372Z,1619.00
2022-09-28T11:23:38.247Z,1150.00
2022-09-28T11:24:56.167Z,1122.00
2022-09-28T11:26:18.316Z,1118.00
2022-09-28T11:27:39.090Z,1193.00
2022-09-28T11:28:58.136Z,1372.00
2022-09-28T11:30:17.255Z,1620.00
2022-09-28T11:31:36.268Z,1877.00
2022-09-28T11:32:58.916Z,2130.00
2022-09-28T11:34:16.980Z,2189.00
2022-09-28T11:35:38.172Z,2039.00
2022-09-28T11:37:01.527Z,1871.00
2022-09-28T11:38:19.743Z,1630.00
2022-09-28T11:39:40.954Z,1442.00
2022-09-28T11:40:58.891Z,1344.00
2022-09-28T11:42:16.855Z,1293.00
2022-09-28T11:43:35.241Z,1289.00
2022-09-28T11:44:54.597Z,1312.00
2022-09-28T11:46:13.050Z,1496.00
2022-09-28T11:47:32.467Z,1932.00
2022-09-28T11:48:50.817Z,2359.00
2022-09-28T11:50:10.958Z,2819.00
2022-09-28T11:53:20.934Z,2236.00
2022-09-28T11:54:40.344Z,1917.00
2022-09-28T11:56:00.288Z,1834.00
2022-09-28T11:57:19.146Z,1671.00
2022-09-28T11:58:38.034Z,1573.00
2022-09-28T11:59:56.363Z,1536.00
2022-09-28T12:01:18.766Z,1497.00
2022-09-28T12:02:36.811Z,1491.00
2022-09-28T12:03:55.323Z,1477.00
2022-09-28T12:05:19.870Z,1488.00
2022-09-28T12:06:38.364Z,1509.00
2022-09-28T12:07:55.984Z,1572.00
2022-09-28T12:09:14.473Z,1693.00
2022-09-28T12:10:33.376Z,1881.00
2022-09-28T12:11:57.169Z,2027.00
2022-09-28T12:13:14.526Z,2187.00
2022-09-28T12:14:32.396Z,2349.00
2022-09-28T12:17:19.243Z,2512.00
2022-09-28T12:18:37.128Z,2520.00
2022-09-28T12:19:54.988Z,2499.00
2022-09-28T12:21:13.341Z,2496.00
2022-09-28T12:22:31.687Z,2477.00
2022-09-28T12:23:50.008Z,2581.00
2022-09-28T12:25:07.879Z,2496.00
2022-09-28T12:26:26.990Z,2447.00
2022-09-28T12:27:45.821Z,2502.00
2022-09-28T12:29:03.682Z,2716.00
2022-09-28T12:30:22.410Z,3138.00
2022-09-28T12:31:41.799Z,3556.00
2022-09-28T12:33:01.172Z,3775.00
2022-09-28T12:34:20.562Z,4754.00
2022-09-28T12:35:39.079Z,4947.00
2022-09-28T12:36:57.440Z,6068.00
2022-09-28T12:38:16.908Z,8396.00
2022-09-28T12:39:53.597Z,8484.00
2022-09-28T12:40:57.169Z,7533.00
2022-09-28T12:42:16.091Z,5680.00
2022-09-28T12:43:34.675Z,5386.00
2022-09-28T12:44:58.580Z,4884.00
2022-09-28T12:46:17.317Z,4788.00
2022-09-28T12:47:35.533Z,5644.00
2022-09-28T12:49:24.128Z,6349.00
2022-09-28T12:51:39.010Z,12850.00
2022-09-28T12:53:00.684Z,4446.00
2022-09-28T12:54:23.666Z,3210.00
2022-09-28T12:55:42.213Z,2503.00
2022-09-28T12:56:59.679Z,2000.00
2022-09-28T12:58:18.058Z,1611.00
2022-09-28T12:59:34.647Z,1392.00
2022-09-28T13:00:53.166Z,1129.00
2022-09-28T13:02:12.168Z,928.00
2022-09-28T13:03:30.674Z,753.00
2022-09-28T13:04:48.543Z,663.00
2022-09-28T13:06:05.987Z,618.00
2022-09-28T13:07:24.366Z,621.00
2022-09-28T13:08:41.855Z,695.00
2022-09-28T13:09:59.324Z,920.00
2022-09-28T13:11:17.212Z,1244.00
2022-09-28T13:12:35.199Z,1553.00
2022-09-28T13:13:53.687Z,1942.00
2022-09-28T13:15:10.165Z,2152.00
2022-09-28T13:16:26.690Z,2151.00
2022-09-28T13:17:44.600Z,2158.00
2022-09-28T13:19:01.061Z,2285.00
2022-09-28T13:20:18.576Z,2472.00
2022-09-28T13:21:36.119Z,2662.00
2022-09-28T13:22:54.662Z,4219.00
2022-09-28T13:24:31.098Z,3476.00
2022-09-28T13:25:34.406Z,3086.00
2022-09-28T13:26:52.812Z,2574.00
2022-09-28T13:28:11.274Z,2076.00
2022-09-28T13:29:30.460Z,1765.00
2022-09-28T13:30:47.993Z,1542.00
2022-09-28T13:32:05.653Z,1383.00
2022-09-28T13:33:23.082Z,1261.00
2022-09-28T13:34:41.608Z,1223.00
2022-09-28T13:36:00.234Z,1213.00
2022-09-28T13:37:17.607Z,1149.00
2022-09-28T13:38:36.576Z,1017.00
2022-09-28T13:39:56.036Z,924.00
2022-09-28T13:41:13.605Z,877.00
2022-09-28T13:42:32.120Z,815.00
2022-09-28T13:43:55.029Z,739.00
2022-09-28T13:45:16.817Z,703.00
2022-09-28T13:46:34.782Z,646.00
2022-09-28T13:49:43.893Z,711.00
2022-09-28T13:51:03.439Z,707.00
2022-09-28T13:54:11.657Z,604.00
2022-09-28T13:55:29.628Z,525.00
2022-09-28T13:56:47.418Z,431.00
2022-09-28T13:58:05.886Z,355.00
2022-09-28T13:59:22.480Z,276.00
2022-09-28T14:00:39.313Z,234.00
2022-09-28T14:01:59.119Z,212.00
2022-09-28T14:03:17.990Z,222.00
2022-09-28T14:04:36.960Z,237.00
2022-09-28T14:05:56.270Z,266.00
2022-09-28T14:07:14.489Z,336.00
2022-09-28T14:08:32.396Z,421.00
2022-09-28T14:09:50.606Z,564.00
2022-09-28T14:11:08.072Z,738.00
2022-09-28T14:12:26.873Z,890.00
2022-09-28T14:13:45.202Z,1022.00
2022-09-28T14:15:04.193Z,1146.00
2022-09-28T14:16:23.420Z,1367.00
2022-09-28T14:17:40.027Z,1649.00
2022-09-28T14:18:58.207Z,1913.00
2022-09-28T14:20:19.546Z,2168.00
2022-09-28T14:21:37.136Z,2374.00
2022-09-28T14:22:55.099Z,2593.00
2022-09-28T14:24:13.446Z,3138.00
2022-09-28T14:25:31.497Z,2889.00
2022-09-28T14:26:47.976Z,2957.00
2022-09-28T14:28:05.836Z,2620.00
2022-09-28T14:29:23.761Z,3044.00
2022-09-28T14:30:42.624Z,3025.00
2022-09-28T14:32:01.038Z,2584.00
2022-09-28T14:33:18.995Z,2220.00
2022-09-28T14:34:36.416Z,2759.00
2022-09-28T14:35:53.805Z,2628.00
2022-09-28T14:37:12.323Z,2627.00
2022-09-28T14:38:30.269Z,2563.00
2022-09-28T14:39:48.122Z,2660.00
2022-09-28T14:41:06.642Z,2628.00
2022-09-28T14:42:24.476Z,2233.00
2022-09-28T14:43:42.505Z,3053.00
2022-09-28T14:45:05.257Z,2606.00
2022-09-28T14:46:23.267Z,2910.00
2022-09-28T14:47:41.588Z,2686.00
2022-09-28T14:48:58.329Z,2841.00
2022-09-28T14:50:16.258Z,3250.00
2022-09-28T14:51:34.195Z,3810.00
2022-09-28T14:52:52.022Z,3158.00
2022-09-28T14:54:08.571Z,2205.00
2022-09-28T14:55:25.237Z,1923.00
2022-09-28T14:56:43.606Z,2156.00
2022-09-28T14:58:01.491Z,1828.00
2022-09-28T14:59:18.086Z,1907.00
2022-09-28T15:00:36.030Z,1930.00
2022-09-28T15:01:53.878Z,2188.00
2022-09-28T15:03:12.354Z,1933.00
2022-09-28T15:04:30.994Z,2423.00
2022-09-28T15:05:49.057Z,1819.00
2022-09-28T15:07:07.693Z,2201.00
2022-09-28T15:08:25.149Z,2461.00
2022-09-28T15:09:43.011Z,2624.00
2022-09-28T15:11:00.951Z,2576.00
2022-09-28T15:12:18.830Z,1815.00
2022-09-28T15:13:35.308Z,1642.00
2022-09-28T15:14:53.284Z,1525.00
2022-09-28T15:16:11.242Z,1546.00
2022-09-28T15:17:28.573Z,1882.00
2022-09-28T15:18:45.968Z,1922.00
2022-09-28T15:20:03.344Z,1954.00
2022-09-28T15:21:21.445Z,1921.00
2022-09-28T15:22:37.915Z,1856.00
2022-09-28T15:23:55.773Z,1747.00
2022-09-28T15:25:13.654Z,1661.00
2022-09-28T15:26:31.539Z,1560.00
2022-09-28T15:27:49.443Z,1474.00
2022-09-28T15:29:07.305Z,1545.00
2022-09-28T15:30:25.154Z,1365.00
2022-09-28T15:31:43.066Z,1614.00
2022-09-28T15:33:01.223Z,1241.00
2022-09-28T15:34:19.247Z,1683.00
2022-09-28T15:35:37.168Z,1384.00
2022-09-28T15:36:55.025Z,1359.00
2022-09-28T15:38:12.886Z,1269.00
2022-09-28T15:39:30.848Z,1150.00
2022-09-28T15:40:49.224Z,1073.00
2022-09-28T15:42:07.079Z,1014.00
2022-09-28T15:43:25.430Z,913.00
2022-09-28T15:44:43.720Z,855.00
2022-09-28T15:46:01.657Z,820.00
2022-09-28T15:47:20.100Z,788.00
2022-09-28T15:48:37.920Z,799.00
2022-09-28T15:49:55.741Z,826.00
2022-09-28T15:51:13.855Z,892.00
2022-09-28T15:52:31.801Z,930.00
2022-09-28T15:53:49.150Z,915.00
2022-09-28T15:55:07.077Z,858.00
2022-09-28T15:56:25.004Z,797.00
2022-09-28T15:57:43.135Z,710.00
2022-09-28T15:59:00.526Z,647.00
2022-09-28T16:00:18.437Z,593.00
2022-09-28T16:01:36.670Z,538.00
2022-09-28T16:02:54.690Z,505.00
2022-09-28T16:04:12.802Z,480.00
2022-09-28T16:05:30.701Z,459.00
2022-09-28T16:06:48.546Z,454.00
2022-09-28T16:08:06.407Z,452.00
2022-09-28T16:09:24.237Z,433.00
2022-09-28T16:10:42.413Z,421.00
2022-09-28T16:12:00.291Z,413.00
2022-09-28T16:13:18.178Z,406.00
2022-09-28T16:14:36.067Z,399.00
2022-09-28T16:15:54.070Z,392.00
2022-09-28T16:17:11.810Z,390.00
2022-09-28T16:18:29.740Z,386.00
2022-09-28T16:19:47.620Z,386.00
2022-09-28T16:21:05.593Z,376.00
2022-09-28T16:22:26.726Z,372.00
2022-09-28T16:23:46.295Z,371.00
2022-09-28T16:25:04.202Z,372.00
2022-09-28T16:26:22.084Z,374.00
2022-09-28T16:27:39.933Z,365.00
2022-09-28T16:28:56.620Z,358.00
2022-09-28T16:30:14.672Z,352.00
2022-09-28T16:31:32.052Z,352.00
2022-09-28T16:32:49.446Z,334.00
2022-09-28T16:34:09.576Z,334.00
2022-09-28T16:35:27.320Z,324.00
2022-09-28T16:36:45.309Z,313.00
2022-09-28T16:38:02.635Z,315.00
2022-09-28T16:39:21.648Z,290.00
2022-09-28T16:40:39.836Z,276.00
2022-09-28T16:41:57.811Z,249.00
2022-09-28T16:43:14.321Z,208.00
2022-09-28T16:44:32.258Z,183.00
2022-09-28T16:45:50.100Z,159.00
2022-09-28T16:47:09.979Z,138.00
2022-09-28T16:48:27.831Z,123.00
2022-09-28T16:49:45.693Z,124.00
2022-09-28T16:51:02.095Z,120.00
2022-09-28T16:52:20.002Z,134.00
2022-09-28T16:53:38.133Z,134.00
2022-09-28T16:54:56.074Z,146.00
2022-09-28T16:56:13.933Z,137.00
2022-09-28T16:57:31.845Z,124.00
2022-09-28T16:58:49.685Z,128.00
2022-09-28T17:00:07.303Z,119.00
2022-09-28T17:01:23.779Z,114.00
2022-09-28T17:02:46.831Z,113.00
2022-09-28T17:04:04.337Z,67.00
2022-09-28T17:05:22.188Z,87.00
2022-09-28T17:06:40.287Z,86.00
2022-09-28T17:07:58.183Z,85.00
2022-09-28T17:09:16.037Z,64.00